Havre-Saint-Pierre, Canada
Current Conditions -  °F | °C
As of 6:00 PM on Friday 24 Oct 2014 (Local Time) from CYGV Reporting Station
Few Clouds Few Clouds  
Wind Chill: 52°   Ceiling: Unl
Heat Index: 52°   Visibility: 9mi
Dew Point: 32°   Wind: 7mph
Humidity: 47%   Direction: 40°NE
Pressure: 29.77"   Gusts: NA
Location:  50.25°N, 63.58°W
Report Text: CYGV 242100Z AUTO 04006KT 9SM FEW220 11/M00 A2977 RMK SLP083
Loading
Personal Weather Stations






























Interactive Weather Map
Tropical Storm Tracking
New forecast layout! Learn more

10-Day Weather Forecast

Advertisements
Track Severe Weather on mobile